Time;durP1;ratioP1;P1;durP2;ratioP2;P2;SDS_P1;SDS_P2;PMS_P1;PMS_P2;Temp;Humidity;BMP_temperature;BMP_pressure;BME280_temperature;BME280_humidity;BME280_pressure;Samples;Min_cycle;Max_cycle;Signal;HPM_P1;HPM_P2
2022/02/28 00:00:15;;;;;;;5.47;4.47;;;15.90;44.00;;;;;;5056380;28;20488;-78
2022/02/28 00:02:43;;;;;;;5.07;4.57;;;15.80;44.00;;;;;;5056957;28;20509;-77
2022/02/28 00:05:11;;;;;;;7.60;4.90;;;15.90;44.60;;;;;;5058813;28;20465;-78
2022/02/28 00:07:40;;;;;;;6.70;4.60;;;15.80;44.00;;;;;;5063303;28;20504;-78
2022/02/28 00:10:09;;;;;;;5.80;4.97;;;15.80;44.10;;;;;;5066528;28;20541;-78
2022/02/28 00:12:37;;;;;;;4.90;4.40;;;15.80;44.00;;;;;;5066135;28;20990;-78
2022/02/28 00:15:05;;;;;;;6.23;4.93;;;15.80;44.00;;;;;;5071051;28;20537;-77
2022/02/28 00:17:34;;;;;;;5.53;4.67;;;15.80;44.10;;;;;;5065223;28;20936;-78
2022/02/28 00:20:02;;;;;;;5.23;4.73;;;15.70;44.10;;;;;;5063247;28;20472;-79
2022/02/28 00:22:32;;;;;;;5.70;4.80;;;15.70;44.10;;;;;;5061732;28;20516;-77
2022/02/28 00:25:01;;;;;;;7.33;5.10;;;15.70;44.10;;;;;;5052335;28;20455;-79
2022/02/28 00:27:29;;;;;;;6.07;4.83;;;15.70;44.10;;;;;;5065771;28;20465;-78
2022/02/28 00:29:57;;;;;;;5.67;4.87;;;15.60;44.10;;;;;;5067500;28;20480;-77
2022/02/28 00:32:25;;;;;;;5.77;4.80;;;15.70;44.30;;;;;;5069784;28;20529;-78
2022/02/28 00:34:53;;;;;;;6.53;4.90;;;15.60;44.00;;;;;;5063082;28;20463;-78
2022/02/28 00:37:23;;;;;;;5.80;4.70;;;15.60;44.20;;;;;;5069972;28;20442;-78
2022/02/28 00:39:51;;;;;;;6.67;5.13;;;15.60;44.20;;;;;;5065511;28;20458;-79
2022/02/28 00:42:20;;;;;;;5.83;4.87;;;15.60;44.20;;;;;;5069754;28;20553;-79
2022/02/28 00:44:48;;;;;;;6.63;5.33;;;15.60;44.20;;;;;;5070460;28;20489;-80
2022/02/28 00:47:16;;;;;;;5.80;5.10;;;15.60;44.00;;;;;;5060692;28;20544;-78
2022/02/28 00:49:44;;;;;;;5.67;5.00;;;15.50;44.10;;;;;;5069728;28;20469;-80
2022/02/28 00:52:12;;;;;;;7.30;4.97;;;15.50;44.20;;;;;;5068877;28;20464;-80
2022/02/28 00:54:41;;;;;;;5.50;4.90;;;15.50;44.10;;;;;;5069240;28;20492;-78
2022/02/28 00:57:09;;;;;;;5.90;4.93;;;15.40;44.30;;;;;;5070046;28;20469;-79
2022/02/28 00:59:38;;;;;;;7.00;4.30;;;15.40;44.20;;;;;;5068236;28;20468;-78
2022/02/28 01:02:05;;;;;;;5.97;4.70;;;15.40;44.20;;;;;;5070085;28;20483;-78
2022/02/28 01:04:33;;;;;;;5.30;4.60;;;15.40;44.20;;;;;;5074310;28;20430;-78
2022/02/28 01:07:01;;;;;;;6.33;4.50;;;15.40;44.20;;;;;;5074660;28;20456;-78
2022/02/28 01:09:29;;;;;;;8.40;5.20;;;15.40;44.40;;;;;;5074367;28;20480;-79
2022/02/28 01:11:57;;;;;;;6.50;5.20;;;15.40;44.40;;;;;;5072250;28;20524;-78
2022/02/28 01:14:25;;;;;;;6.70;5.27;;;15.30;44.30;;;;;;5074171;28;20529;-78
2022/02/28 01:16:54;;;;;;;6.20;4.57;;;15.30;44.30;;;;;;5074700;28;20485;-78
2022/02/28 01:19:22;;;;;;;7.03;4.97;;;15.30;44.30;;;;;;5073309;28;20453;-79
2022/02/28 01:21:50;;;;;;;5.13;4.63;;;15.30;44.40;;;;;;5074016;28;20968;-79
2022/02/28 01:24:18;;;;;;;6.60;5.27;;;15.30;44.40;;;;;;5071688;28;20512;-78
2022/02/28 01:26:46;;;;;;;6.60;4.97;;;15.30;44.20;;;;;;5074129;28;20883;-78
2022/02/28 01:29:14;;;;;;;6.20;4.67;;;15.20;44.30;;;;;;5074279;28;20491;-78
2022/02/28 01:31:41;;;;;;;5.50;4.83;;;15.20;44.50;;;;;;5074343;28;20535;-78
2022/02/28 01:34:11;;;;;;;7.60;5.17;;;15.20;44.30;;;;;;5074147;28;20430;-78
2022/02/28 01:36:39;;;;;;;6.13;4.90;;;15.20;44.30;;;;;;5070883;28;20493;-78
2022/02/28 01:39:07;;;;;;;6.13;5.23;;;15.20;44.30;;;;;;5063276;28;20496;-79
2022/02/28 01:41:35;;;;;;;6.87;5.50;;;15.20;44.20;;;;;;5074413;28;20472;-79
2022/02/28 01:44:05;;;;;;;8.60;5.37;;;15.10;44.40;;;;;;5074276;28;20469;-79
2022/02/28 01:46:34;;;;;;;6.47;5.53;;;15.10;44.40;;;;;;5074098;28;20472;-79
2022/02/28 01:49:02;;;;;;;7.20;5.00;;;15.10;44.40;;;;;;5074227;28;20462;-78
2022/02/28 01:51:31;;;;;;;6.10;5.10;;;15.10;44.40;;;;;;5074327;28;20536;-78
2022/02/28 01:53:59;;;;;;;6.17;4.97;;;15.00;44.30;;;;;;5072854;28;20497;-79
2022/02/28 01:56:27;;;;;;;5.77;5.20;;;15.00;44.40;;;;;;5059139;28;20481;-78
2022/02/28 01:58:54;;;;;;;7.17;4.90;;;15.00;44.40;;;;;;5054277;28;20482;-79
2022/02/28 02:01:22;;;;;;;6.70;5.23;;;15.00;44.50;;;;;;5054056;28;20541;-78
2022/02/28 02:03:50;;;;;;;7.30;5.80;;;14.90;44.40;;;;;;5053818;28;20524;-78
2022/02/28 02:06:19;;;;;;;6.10;5.30;;;14.90;44.50;;;;;;5053926;28;20450;-79
2022/02/28 02:08:48;;;;;;;6.60;5.37;;;14.90;44.30;;;;;;5053781;28;20483;-78
2022/02/28 02:11:16;;;;;;;7.37;5.50;;;14.90;44.50;;;;;;5062461;28;20545;-79
2022/02/28 02:13:44;;;;;;;7.90;4.97;;;14.90;44.50;;;;;;5064446;28;20533;-79
2022/02/28 02:16:12;;;;;;;6.13;5.10;;;14.90;44.50;;;;;;5053449;28;20545;-79
2022/02/28 02:18:40;;;;;;;6.50;5.00;;;14.80;44.50;;;;;;5053654;28;20449;-79
2022/02/28 02:21:09;;;;;;;6.53;5.30;;;14.90;44.50;;;;;;5053254;28;20430;-79
2022/02/28 02:23:37;;;;;;;6.80;5.40;;;14.80;44.40;;;;;;5053626;28;20746;-79
2022/02/28 02:26:05;;;;;;;5.80;5.20;;;14.80;44.50;;;;;;5053544;28;20447;-79
2022/02/28 02:28:36;;;;;;;6.90;5.40;;;14.80;44.60;;;;;;5064412;28;20521;-78
2022/02/28 02:31:06;;;;;;;7.77;5.67;;;14.80;44.50;;;;;;5061976;28;20521;-78
2022/02/28 02:33:34;;;;;;;5.83;5.20;;;14.70;44.30;;;;;;5053253;28;20435;-79
2022/02/28 02:36:05;;;;;;;8.60;5.77;;;14.70;44.50;;;;;;5053180;28;20501;-79
2022/02/28 02:38:35;;;;;;;7.57;5.93;;;14.70;44.50;;;;;;5053068;28;20469;-78
2022/02/28 02:41:04;;;;;;;8.20;5.73;;;14.70;44.60;;;;;;5053526;28;20463;-78
2022/02/28 02:43:33;;;;;;;6.33;5.40;;;14.70;44.60;;;;;;5059839;28;20504;-79
2022/02/28 02:46:01;;;;;;;6.60;5.30;;;14.60;44.40;;;;;;5061842;28;20534;-79
2022/02/28 02:48:29;;;;;;;7.83;5.43;;;14.60;44.60;;;;;;5049199;28;20501;-79
2022/02/28 02:50:57;;;;;;;7.70;5.33;;;14.60;44.60;;;;;;5053023;28;20492;-79
2022/02/28 02:53:25;;;;;;;6.30;5.20;;;14.60;44.50;;;;;;5053049;28;20473;-79
2022/02/28 02:55:54;;;;;;;7.17;5.17;;;14.50;44.40;;;;;;5052899;28;20497;-80
2022/02/28 02:58:22;;;;;;;7.20;5.90;;;14.60;44.50;;;;;;5057969;28;20439;-80
2022/02/28 03:00:51;;;;;;;7.87;5.63;;;14.50;44.40;;;;;;5064749;28;20493;-79
2022/02/28 03:03:22;;;;;;;7.43;5.30;;;14.50;44.50;;;;;;5072503;28;20546;-80
2022/02/28 03:05:51;;;;;;;8.70;5.30;;;14.50;44.60;;;;;;5057480;28;20458;-80
2022/02/28 03:08:21;;;;;;;6.93;5.63;;;14.50;44.50;;;;;;5057253;28;20450;-80
2022/02/28 03:10:49;;;;;;;6.57;5.00;;;14.50;44.60;;;;;;5056931;28;20439;-80
2022/02/28 03:13:18;;;;;;;6.63;5.80;;;14.50;44.50;;;;;;5057113;28;20544;-80
2022/02/28 03:15:46;;;;;;;8.20;5.60;;;14.50;44.70;;;;;;5056839;28;20490;-80
2022/02/28 03:18:14;;;;;;;6.03;5.40;;;14.50;44.60;;;;;;5061279;28;20494;-80
2022/02/28 03:20:41;;;;;;;7.17;5.80;;;14.40;44.40;;;;;;5077033;28;20473;-80
2022/02/28 03:23:10;;;;;;;14.03;6.50;;;14.40;44.60;;;;;;5057399;28;20430;-80
2022/02/28 03:25:37;;;;;;;7.10;5.60;;;14.40;44.50;;;;;;5055807;28;20493;-79
2022/02/28 03:28:05;;;;;;;6.80;5.20;;;14.30;44.50;;;;;;5057204;28;20470;-80
2022/02/28 03:30:35;;;;;;;6.90;5.80;;;14.30;44.60;;;;;;5056393;28;20431;-81
2022/02/28 03:33:03;;;;;;;6.23;5.40;;;14.30;44.50;;;;;;5056701;28;20429;-80
2022/02/28 03:35:30;;;;;;;6.97;6.10;;;14.30;44.70;;;;;;5059925;28;20469;-80
2022/02/28 03:37:58;;;;;;;6.43;5.53;;;14.30;45.00;;;;;;5074441;28;20497;-80
2022/02/28 03:40:26;;;;;;;6.20;5.30;;;14.30;44.60;;;;;;5057103;28;20450;-79
2022/02/28 03:42:55;;;;;;;6.53;5.80;;;14.30;44.60;;;;;;5057125;28;20431;-80
2022/02/28 03:45:23;;;;;;;6.33;5.27;;;14.20;44.60;;;;;;5056989;28;20502;-80
2022/02/28 03:47:52;;;;;;;6.53;5.40;;;14.20;44.60;;;;;;5057188;28;20556;-80
2022/02/28 03:50:24;;;;;;;7.87;5.97;;;14.20;44.60;;;;;;5056641;28;20435;-80
2022/02/28 03:52:52;;;;;;;7.00;6.03;;;14.20;44.70;;;;;;5073514;28;20485;-80
2022/02/28 03:55:21;;;;;;;7.47;5.80;;;14.10;44.60;;;;;;5062965;28;20450;-80
2022/02/28 03:57:49;;;;;;;9.47;5.70;;;14.20;44.60;;;;;;5056657;28;20441;-79
2022/02/28 04:00:17;;;;;;;7.90;6.20;;;14.20;44.60;;;;;;5057333;28;20443;-80
2022/02/28 04:02:45;;;;;;;6.47;5.37;;;14.10;44.60;;;;;;5056231;28;20473;-80
2022/02/28 04:05:14;;;;;;;8.20;5.90;;;14.10;44.60;;;;;;5056958;28;20479;-80
2022/02/28 04:07:43;;;;;;;6.73;5.50;;;14.10;44.60;;;;;;5056773;28;20438;-81
2022/02/28 04:10:11;;;;;;;8.13;5.73;;;14.10;44.40;;;;;;5067913;28;20465;-81
2022/02/28 04:12:39;;;;;;;7.30;5.23;;;14.10;44.60;;;;;;5068608;28;20466;-81
2022/02/28 04:15:08;;;;;;;5.97;5.23;;;14.10;44.60;;;;;;5056975;28;20478;-80
2022/02/28 04:17:36;;;;;;;7.60;6.07;;;14.10;45.20;;;;;;5056129;28;20474;-80
2022/02/28 04:20:05;;;;;;;6.83;5.67;;;14.10;44.70;;;;;;5056528;28;20500;-80
2022/02/28 04:22:34;;;;;;;7.00;5.57;;;14.00;44.60;;;;;;5060673;28;20450;-81
2022/02/28 04:25:02;;;;;;;7.17;5.73;;;14.00;44.60;;;;;;5073137;28;20506;-80
2022/02/28 04:27:29;;;;;;;8.50;6.30;;;13.90;44.60;;;;;;5056045;28;20497;-81
2022/02/28 04:29:57;;;;;;;6.87;6.03;;;14.00;44.70;;;;;;5055927;28;20751;-81
2022/02/28 04:32:25;;;;;;;7.80;5.73;;;13.90;44.50;;;;;;5056631;28;20427;-80
2022/02/28 04:34:53;;;;;;;7.23;6.10;;;13.90;44.60;;;;;;5056821;28;20426;-81
2022/02/28 04:37:21;;;;;;;8.80;5.93;;;13.90;44.60;;;;;;5058736;28;20466;-80
2022/02/28 04:39:50;;;;;;;7.10;5.57;;;13.90;44.70;;;;;;5066809;28;20479;-80
2022/02/28 04:42:18;;;;;;;8.20;5.80;;;13.90;44.80;;;;;;5075341;28;20470;-80
2022/02/28 04:44:48;;;;;;;8.90;5.83;;;13.80;44.60;;;;;;5060964;28;20545;-80
2022/02/28 04:47:20;;;;;;;7.43;6.33;;;13.80;44.70;;;;;;5060738;28;20434;-81
2022/02/28 04:49:51;;;;;;;11.97;6.90;;;13.80;44.70;;;;;;5060919;28;20533;-80
2022/02/28 04:52:18;;;;;;;6.80;5.63;;;13.80;44.80;;;;;;5060834;28;20533;-81
2022/02/28 04:54:46;;;;;;;9.13;6.40;;;13.80;44.70;;;;;;5061340;28;20458;-80
2022/02/28 04:57:15;;;;;;;7.33;5.70;;;13.80;44.70;;;;;;5074858;28;20461;-81
2022/02/28 04:59:46;;;;;;;8.20;5.60;;;13.70;44.70;;;;;;5059680;28;20477;-80
2022/02/28 05:02:14;;;;;;;7.60;6.00;;;13.70;44.70;;;;;;5059484;28;20474;-81
2022/02/28 05:04:42;;;;;;;7.77;5.60;;;13.80;44.80;;;;;;5059356;28;20470;-80
2022/02/28 05:07:10;;;;;;;7.00;5.60;;;13.80;44.70;;;;;;5059618;28;20469;-80
2022/02/28 05:09:38;;;;;;;7.13;5.90;;;13.70;44.70;;;;;;5059000;28;20442;-79
2022/02/28 05:12:06;;;;;;;6.07;5.47;;;13.70;44.50;;;;;;5078252;28;20450;-80
2022/02/28 05:14:35;;;;;;;8.10;6.40;;;13.70;44.70;;;;;;5063192;28;20481;-80
2022/02/28 05:17:03;;;;;;;8.07;6.10;;;13.70;44.60;;;;;;5059090;28;20484;-80
2022/02/28 05:19:31;;;;;;;6.93;5.87;;;13.70;44.70;;;;;;5059367;28;20514;-80
2022/02/28 05:22:02;;;;;;;7.87;5.37;;;13.70;44.60;;;;;;5059349;28;20435;-80
2022/02/28 05:24:30;;;;;;;9.57;6.50;;;13.70;44.60;;;;;;5059011;28;20474;-80
2022/02/28 05:26:58;;;;;;;8.33;6.40;;;13.70;44.60;;;;;;5072812;28;20496;-80
2022/02/28 05:29:27;;;;;;;9.30;6.33;;;13.60;44.60;;;;;;5064262;28;20512;-80
2022/02/28 05:31:56;;;;;;;7.53;6.00;;;13.60;44.70;;;;;;5057714;28;20492;-79
2022/02/28 05:34:24;;;;;;;7.00;5.90;;;13.60;44.70;;;;;;5057608;28;20445;-79
2022/02/28 05:36:52;;;;;;;7.40;5.87;;;13.60;44.60;;;;;;5057372;28;20458;-79
2022/02/28 05:39:20;;;;;;;7.50;5.77;;;13.60;44.70;;;;;;5058328;28;20472;-80
2022/02/28 05:41:48;;;;;;;7.90;6.40;;;13.50;44.60;;;;;;5057861;28;20450;-80
2022/02/28 05:44:16;;;;;;;10.63;6.37;;;13.50;44.80;;;;;;5075518;28;20450;-79
2022/02/28 05:46:44;;;;;;;8.17;6.47;;;13.50;44.60;;;;;;5059973;28;20481;-80
2022/02/28 05:49:14;;;;;;;7.90;6.03;;;13.40;44.60;;;;;;5056662;28;20461;-80
2022/02/28 05:51:42;;;;;;;7.70;6.00;;;13.50;44.60;;;;;;5057240;28;20462;-79
2022/02/28 05:54:10;;;;;;;7.17;5.93;;;13.50;44.80;;;;;;5057468;28;20450;-80
2022/02/28 05:56:38;;;;;;;9.57;6.10;;;13.40;44.70;;;;;;5057316;28;20490;-80
2022/02/28 05:59:05;;;;;;;7.57;6.77;;;13.50;44.80;;;;;;5056944;28;20451;-80
2022/02/28 06:01:33;;;;;;;8.90;6.60;;;13.50;44.90;;;;;;5074797;28;20457;-79
2022/02/28 06:04:01;;;;;;;7.73;6.10;;;13.40;44.60;;;;;;5057669;28;20465;-79
2022/02/28 06:06:31;;;;;;;9.60;5.87;;;13.40;44.80;;;;;;5057301;28;20520;-80
2022/02/28 06:09:00;;;;;;;8.40;6.73;;;13.40;44.60;;;;;;5056953;28;20431;-80
2022/02/28 06:11:29;;;;;;;8.20;5.93;;;13.30;44.60;;;;;;5057849;28;20446;-80
2022/02/28 06:13:56;;;;;;;7.60;5.80;;;13.40;44.80;;;;;;5056974;28;20454;-80
2022/02/28 06:16:24;;;;;;;9.77;6.13;;;13.30;44.70;;;;;;5057508;28;20478;-79
2022/02/28 06:18:52;;;;;;;8.70;6.57;;;13.30;44.80;;;;;;5075035;28;20449;-80
2022/02/28 06:21:20;;;;;;;7.60;6.17;;;13.40;44.80;;;;;;5057737;28;20938;-79
2022/02/28 06:23:49;;;;;;;9.60;6.40;;;13.30;44.80;;;;;;5057885;28;20508;-79
2022/02/28 06:26:20;;;;;;;8.10;6.30;;;13.30;44.80;;;;;;5057190;28;20536;-80
2022/02/28 06:28:48;;;;;;;9.93;7.03;;;13.30;44.90;;;;;;5057628;28;20435;-79
2022/02/28 06:31:16;;;;;;;8.00;6.50;;;13.40;44.60;;;;;;5057155;28;20929;-80
2022/02/28 06:33:46;;;;;;;8.13;6.40;;;13.40;44.90;;;;;;5066671;28;20464;-80
2022/02/28 06:36:14;;;;;;;7.80;6.17;;;13.40;44.90;;;;;;5064482;28;20513;-80
2022/02/28 06:38:42;;;;;;;9.00;6.53;;;13.40;44.80;;;;;;5057153;28;20462;-79
2022/02/28 06:41:11;;;;;;;8.07;6.47;;;13.40;44.80;;;;;;5057345;28;20423;-80
2022/02/28 06:43:39;;;;;;;7.87;6.60;;;13.40;44.70;;;;;;5056403;28;20454;-79
2022/02/28 06:46:07;;;;;;;12.30;6.50;;;13.50;44.70;;;;;;5055374;28;20540;-79
2022/02/28 06:48:35;;;;;;;8.97;6.37;;;13.50;44.50;;;;;;5062929;28;21004;-79
2022/02/28 06:51:03;;;;;;;6.87;5.77;;;13.50;44.60;;;;;;5075244;28;20437;-79
2022/02/28 06:53:31;;;;;;;7.77;5.93;;;13.50;44.50;;;;;;5075565;28;20430;-78
2022/02/28 06:55:59;;;;;;;12.10;7.30;;;13.50;44.50;;;;;;5075178;28;20484;-79
2022/02/28 06:58:28;;;;;;;7.67;6.30;;;13.50;44.40;;;;;;5075302;28;20575;-79
2022/02/28 07:00:56;;;;;;;9.63;7.30;;;13.60;44.50;;;;;;5075651;28;20495;-78
2022/02/28 07:03:24;;;;;;;7.37;6.20;;;13.60;44.70;;;;;;5075398;28;20444;-79
2022/02/28 07:05:52;;;;;;;8.20;6.40;;;13.60;44.70;;;;;;5073896;28;20470;-79
2022/02/28 07:08:20;;;;;;;8.10;6.33;;;13.60;44.70;;;;;;5069561;28;20465;-79
2022/02/28 07:10:49;;;;;;;8.50;6.80;;;13.60;45.20;;;;;;5057194;28;20431;-80
2022/02/28 07:13:16;;;;;;;7.53;6.23;;;13.60;44.70;;;;;;5055724;28;20485;-79
2022/02/28 07:15:47;;;;;;;7.30;5.97;;;13.60;44.80;;;;;;5055080;28;20451;-79
2022/02/28 07:18:15;;;;;;;9.60;7.27;;;13.60;44.70;;;;;;5054353;28;20448;-79
2022/02/28 07:20:43;;;;;;;8.43;6.70;;;13.60;44.80;;;;;;5055544;28;20434;-80
2022/02/28 07:23:11;;;;;;;9.40;6.30;;;13.60;44.90;;;;;;5059559;28;20496;-80
2022/02/28 07:25:39;;;;;;;8.50;6.20;;;13.70;44.90;;;;;;5067581;28;20516;-80
2022/02/28 07:28:07;;;;;;;9.17;6.97;;;13.70;44.80;;;;;;5055888;28;20433;-80
2022/02/28 07:30:35;;;;;;;7.87;6.77;;;13.70;44.80;;;;;;5055349;28;20474;-80
2022/02/28 07:33:04;;;;;;;9.37;7.23;;;13.70;44.70;;;;;;5055353;28;20437;-80
2022/02/28 07:35:33;;;;;;;9.33;7.30;;;13.80;44.90;;;;;;5055452;28;20446;-80
2022/02/28 07:38:01;;;;;;;7.03;6.33;;;13.80;44.80;;;;;;5055273;28;20434;-80
2022/02/28 07:40:29;;;;;;;7.50;6.40;;;13.80;44.80;;;;;;5057783;28;20502;-79
2022/02/28 07:42:57;;;;;;;8.50;6.60;;;13.80;44.80;;;;;;5071230;28;20440;-80
2022/02/28 07:45:25;;;;;;;8.63;6.63;;;13.90;44.70;;;;;;5053170;28;20483;-79
2022/02/28 07:47:53;;;;;;;9.77;6.67;;;13.90;44.80;;;;;;5054878;28;20469;-80
2022/02/28 07:50:22;;;;;;;10.47;7.80;;;14.00;44.80;;;;;;5054862;28;20469;-79
2022/02/28 07:52:50;;;;;;;7.97;6.50;;;14.00;44.80;;;;;;5055119;28;20446;-79
2022/02/28 07:55:18;;;;;;;8.93;7.07;;;14.10;44.80;;;;;;5055183;28;20482;-80
2022/02/28 07:57:46;;;;;;;10.17;6.20;;;14.10;44.80;;;;;;5068143;28;20449;-80
2022/02/28 08:00:15;;;;;;;7.97;6.40;;;14.10;44.70;;;;;;5061784;28;20806;-79
2022/02/28 08:02:42;;;;;;;9.27;6.97;;;14.20;44.70;;;;;;5054286;28;20473;-79
2022/02/28 08:05:11;;;;;;;7.50;6.23;;;14.20;44.80;;;;;;5054881;28;20497;-79
2022/02/28 08:07:45;;;;;;;8.33;6.60;;;14.30;44.70;;;;;;5055316;28;20474;-80
2022/02/28 08:10:12;;;;;;;9.43;6.90;;;14.30;44.70;;;;;;5054476;28;20434;-79
2022/02/28 08:12:41;;;;;;;8.13;7.03;;;14.40;44.80;;;;;;5053507;28;20481;-79
2022/02/28 08:15:10;;;;;;;9.43;7.00;;;14.50;44.80;;;;;;5065305;28;20477;-80
2022/02/28 08:17:37;;;;;;;7.90;6.70;;;14.60;44.80;;;;;;5066537;28;20438;-80
2022/02/28 08:20:06;;;;;;;9.53;6.80;;;14.80;44.60;;;;;;5054242;28;20470;-80
2022/02/28 08:22:34;;;;;;;7.17;6.43;;;14.90;44.20;;;;;;5054558;28;20466;-79
2022/02/28 08:25:04;;;;;;;7.37;6.53;;;15.20;44.10;;;;;;5053757;28;20454;-80
2022/02/28 08:27:32;;;;;;;10.00;6.80;;;15.40;43.90;;;;;;5053217;28;20557;-79
2022/02/28 08:30:00;;;;;;;8.53;6.70;;;15.50;43.90;;;;;;5054478;28;20541;-80
2022/02/28 08:32:28;;;;;;;14.53;7.87;;;15.40;44.60;;;;;;5059554;28;20477;-79
2022/02/28 08:34:56;;;;;;;9.20;7.30;;;15.50;44.80;;;;;;5072727;28;20434;-80
2022/02/28 08:37:24;;;;;;;7.60;6.50;;;15.70;44.70;;;;;;5053812;28;20477;-80
2022/02/28 08:39:52;;;;;;;8.63;6.80;;;15.90;44.90;;;;;;5053876;28;20557;-79
2022/02/28 08:42:21;;;;;;;9.43;7.00;;;16.10;44.70;;;;;;5054749;28;20434;-80
2022/02/28 08:44:49;;;;;;;8.90;7.07;;;16.40;44.60;;;;;;5054897;28;20434;-80
2022/02/28 08:47:18;;;;;;;9.83;7.53;;;16.60;44.50;;;;;;5054695;28;20478;-80
2022/02/28 08:49:46;;;;;;;7.70;6.70;;;16.80;44.30;;;;;;5053722;28;20533;-80
2022/02/28 08:52:14;;;;;;;8.80;7.00;;;16.90;45.10;;;;;;5066971;28;20468;-80
2022/02/28 08:54:42;;;;;;;9.17;6.77;;;17.20;44.40;;;;;;5057048;28;20489;-79
2022/02/28 08:57:15;;;;;;;8.73;6.50;;;17.40;44.40;;;;;;5055093;28;20426;-80
2022/02/28 08:59:44;;;;;;;7.40;6.63;;;17.70;44.30;;;;;;5054837;28;20437;-79
2022/02/28 09:02:12;;;;;;;8.53;7.27;;;17.80;44.30;;;;;;5054752;28;20434;-80
2022/02/28 09:04:40;;;;;;;8.50;7.40;;;17.90;44.40;;;;;;5054898;28;20840;-80
2022/02/28 09:07:08;;;;;;;7.60;6.80;;;18.00;44.70;;;;;;5054400;28;20549;-80
2022/02/28 09:09:36;;;;;;;7.43;6.20;;;18.10;44.80;;;;;;5073801;28;20458;-80
2022/02/28 09:12:04;;;;;;;8.50;6.10;;;18.20;45.10;;;;;;5055685;28;20469;-80
2022/02/28 09:14:32;;;;;;;8.10;6.73;;;18.50;45.00;;;;;;5055134;28;20504;-80
2022/02/28 09:17:01;;;;;;;10.13;6.87;;;18.70;44.90;;;;;;5055460;28;20493;-80
2022/02/28 09:19:29;;;;;;;7.57;6.67;;;18.90;44.90;;;;;;5055571;28;20466;-80
2022/02/28 09:21:57;;;;;;;6.80;6.10;;;19.20;44.50;;;;;;5055122;28;20446;-80
2022/02/28 09:24:28;;;;;;;7.10;6.40;;;19.40;44.40;;;;;;5057552;28;20471;-80
2022/02/28 09:26:56;;;;;;;6.50;5.83;;;19.60;44.30;;;;;;5074809;28;20915;-80
2022/02/28 09:29:23;;;;;;;6.10;5.23;;;19.80;44.30;;;;;;5077783;28;20868;-80
2022/02/28 09:31:51;;;;;;;6.93;5.57;;;20.00;44.00;;;;;;5075157;28;20464;-78
2022/02/28 09:34:21;;;;;;;6.37;5.70;;;20.30;43.80;;;;;;5077080;28;20442;-80
2022/02/28 09:36:51;;;;;;;7.20;5.70;;;20.40;43.80;;;;;;5079169;28;20768;-80
2022/02/28 09:39:19;;;;;;;6.60;5.97;;;20.40;43.90;;;;;;5079169;28;20473;-80
2022/02/28 09:41:47;;;;;;;6.93;5.60;;;20.60;43.70;;;;;;5078456;28;20454;-80
2022/02/28 09:44:15;;;;;;;7.80;5.50;;;20.80;43.30;;;;;;5074806;28;20426;-80
2022/02/28 09:46:43;;;;;;;5.90;5.23;;;20.90;43.10;;;;;;5059028;28;20512;-80
2022/02/28 09:49:12;;;;;;;6.63;5.70;;;21.00;43.20;;;;;;5059366;28;20422;-80
2022/02/28 09:51:43;;;;;;;6.27;5.67;;;21.20;42.90;;;;;;5059632;28;20437;-80
2022/02/28 09:54:11;;;;;;;5.23;4.73;;;21.50;42.70;;;;;;5059530;28;20440;-80
2022/02/28 09:56:39;;;;;;;6.17;5.40;;;21.60;42.60;;;;;;5059297;28;20452;-79
2022/02/28 09:59:11;;;;;;;6.20;5.43;;;21.80;42.50;;;;;;5065928;28;20424;-80
2022/02/28 10:01:59;;;;;;;7.07;5.30;;;22.10;42.20;;;;;;5074858;28;20825;-80
2022/02/28 10:04:27;;;;;;;9.00;5.17;;;22.20;42.10;;;;;;5077015;28;20528;-80
2022/02/28 10:06:59;;;;;;;5.97;5.10;;;22.40;42.00;;;;;;5076612;28;20462;-80
2022/02/28 10:09:28;;;;;;;5.93;5.27;;;22.60;41.80;;;;;;5074762;28;20415;-80
2022/02/28 10:11:55;;;;;;;5.53;5.00;;;22.90;41.50;;;;;;5078522;28;20472;-80
2022/02/28 10:14:23;;;;;;;6.23;5.60;;;23.20;41.20;;;;;;5070912;28;20519;-80
2022/02/28 10:16:57;;;;;;;5.87;5.37;;;23.40;41.00;;;;;;5075484;28;20459;-80
2022/02/28 10:19:26;;;;;;;6.07;5.20;;;23.60;40.80;;;;;;5077908;28;20426;-79
2022/02/28 10:21:55;;;;;;;5.60;5.10;;;23.90;40.60;;;;;;5075389;28;20426;-80
2022/02/28 10:24:30;;;;;;;5.73;5.20;;;24.00;40.40;;;;;;5059392;28;20431;-80
2022/02/28 10:26:58;;;;;;;5.60;5.20;;;24.30;40.20;;;;;;5053827;28;20429;-79
2022/02/28 10:29:27;;;;;;;5.80;5.30;;;24.50;39.80;;;;;;5055251;28;20444;-79
2022/02/28 10:31:58;;;;;;;5.87;5.37;;;24.70;39.70;;;;;;5066122;28;20471;-80
2022/02/28 10:34:26;;;;;;;5.63;5.03;;;24.90;39.40;;;;;;5071292;28;20477;-79
2022/02/28 10:37:04;;;;;;;4.93;4.50;;;25.00;39.30;;;;;;5072779;28;20523;-80
2022/02/28 10:39:34;;;;;;;5.80;5.20;;;25.20;39.10;;;;;;5073520;28;20439;-81
2022/02/28 10:42:06;;;;;;;5.27;4.77;;;25.30;38.70;;;;;;5071580;28;20532;-80
2022/02/28 10:44:36;;;;;;;5.20;4.70;;;25.50;38.60;;;;;;5061462;28;20405;-79
2022/02/28 10:47:05;;;;;;;8.43;5.43;;;25.60;38.50;;;;;;5072300;28;20408;-79
2022/02/28 10:49:38;;;;;;;5.93;5.40;;;25.70;38.20;;;;;;5072407;28;20450;-80
2022/02/28 10:52:08;;;;;;;5.23;4.47;;;26.00;38.00;;;;;;5069032;28;20413;-79
2022/02/28 10:54:38;;;;;;;5.10;4.60;;;26.20;37.70;;;;;;5069182;28;20454;-80
2022/02/28 10:57:07;;;;;;;4.97;4.57;;;26.50;37.30;;;;;;5073268;28;20408;-79
2022/02/28 10:59:40;;;;;;;5.93;5.10;;;26.60;37.20;;;;;;5066253;28;20468;-80
2022/02/28 11:02:08;;;;;;;5.07;4.67;;;26.70;37.10;;;;;;5053046;28;20474;-80
2022/02/28 11:04:38;;;;;;;5.17;4.67;;;26.80;37.00;;;;;;5053459;28;20452;-80
2022/02/28 11:07:09;;;;;;;5.97;4.83;;;27.00;36.70;;;;;;5068311;28;20448;-80
2022/02/28 11:09:41;;;;;;;4.73;4.43;;;27.10;36.40;;;;;;5066842;28;20401;-80
2022/02/28 11:12:22;;;;;;;4.70;4.30;;;27.30;36.10;;;;;;5053091;28;20474;-79
2022/02/28 11:14:50;;;;;;;4.87;4.43;;;27.40;36.00;;;;;;5053813;28;20435;-80
2022/02/28 11:17:18;;;;;;;4.93;4.53;;;27.60;35.80;;;;;;5059326;28;20446;-81
2022/02/28 11:19:47;;;;;;;5.37;4.97;;;27.80;35.50;;;;;;5055905;28;20471;-80
2022/02/28 11:22:15;;;;;;;5.00;4.20;;;27.90;35.00;;;;;;5053106;28;20451;-80
2022/02/28 11:24:46;;;;;;;5.43;5.00;;;28.10;34.90;;;;;;5070536;28;20474;-79
2022/02/28 11:27:14;;;;;;;4.80;4.40;;;28.60;34.60;;;;;;5063803;28;20527;-80
2022/02/28 11:29:42;;;;;;;5.60;4.43;;;29.50;33.80;;;;;;5073167;28;20472;-81
2022/02/28 11:32:10;;;;;;;5.20;4.70;;;30.30;32.40;;;;;;5063577;28;20446;-80
2022/02/28 11:34:38;;;;;;;4.93;4.50;;;31.20;31.30;;;;;;5057814;28;20511;-80
2022/02/28 11:37:08;;;;;;;5.10;4.70;;;32.00;30.20;;;;;;5052853;28;20470;-80
2022/02/28 11:39:41;;;;;;;4.50;4.20;;;32.90;29.40;;;;;;5053634;28;20438;-81
2022/02/28 11:42:10;;;;;;;3.93;3.73;;;34.10;28.30;;;;;;5062263;28;20530;-81
2022/02/28 11:44:54;;;;;;;4.30;4.00;;;35.10;27.10;;;;;;5069365;28;20426;-81
2022/02/28 11:47:23;;;;;;;4.07;3.87;;;36.00;26.20;;;;;;5072678;28;20490;-81
2022/02/28 11:49:55;;;;;;;5.07;3.50;;;36.50;25.60;;;;;;5072602;28;20481;-80
2022/02/28 11:52:30;;;;;;;3.93;3.77;;;37.00;25.00;;;;;;5073636;28;20477;-81
2022/02/28 11:54:59;;;;;;;3.60;3.40;;;37.30;24.30;;;;;;5073563;28;20487;-81
2022/02/28 11:57:49;;;;;;;3.90;3.60;;;37.80;24.00;;;;;;5072264;28;20830;-81
2022/02/28 12:00:22;;;;;;;3.73;3.63;;;38.30;23.40;;;;;;5066377;28;20457;-81
2022/02/28 12:02:50;;;;;;;3.10;3.00;;;38.50;23.40;;;;;;5074161;28;20465;-81
2022/02/28 12:05:40;;;;;;;3.43;3.33;;;38.80;22.90;;;;;;5073997;28;20442;-82
2022/02/28 12:08:10;;;;;;;3.20;3.00;;;39.20;22.70;;;;;;5073756;28;20469;-81
2022/02/28 12:10:40;;;;;;;3.10;3.00;;;39.30;22.50;;;;;;5073805;28;20465;-81
2022/02/28 12:13:09;;;;;;;3.70;3.27;;;39.50;22.20;;;;;;5073387;28;20818;-82
2022/02/28 12:15:37;;;;;;;3.00;2.90;;;39.60;22.00;;;;;;5073457;28;20560;-81
2022/02/28 12:18:11;;;;;;;3.13;3.03;;;39.70;22.00;;;;;;5076423;28;20429;-82
2022/02/28 12:20:44;;;;;;;3.30;3.20;;;39.90;22.00;;;;;;5076252;28;20480;-82
2022/02/28 12:23:27;;;;;;;3.30;3.20;;;40.10;21.90;;;;;;5076039;28;20421;-82
2022/02/28 12:26:08;;;;;;;3.43;3.33;;;40.20;21.70;;;;;;5075768;28;20453;-82
2022/02/28 12:28:55;;;;;;;2.87;2.77;;;40.30;21.70;;;;;;5076162;28;20472;-82
2022/02/28 12:31:37;;;;;;;2.80;2.70;;;40.40;21.50;;;;;;5075160;28;20475;-82
2022/02/28 12:34:08;;;;;;;3.33;3.13;;;40.50;21.50;;;;;;5075238;28;20448;-81
2022/02/28 12:36:36;;;;;;;3.33;3.13;;;40.60;21.50;;;;;;5059923;28;20458;-82
2022/02/28 12:39:06;;;;;;;2.73;2.70;;;40.80;21.40;;;;;;5055853;28;20454;-82
2022/02/28 12:41:39;;;;;;;3.40;3.30;;;40.90;21.20;;;;;;5055885;28;20936;-82
2022/02/28 12:44:10;;;;;;;3.20;3.00;;;41.00;21.00;;;;;;5055890;28;20469;-81
2022/02/28 12:46:41;;;;;;;2.63;2.63;;;41.10;20.90;;;;;;5056530;28;20457;-82
2022/02/28 12:49:09;;;;;;;2.80;2.70;;;41.10;20.80;;;;;;5055327;28;20462;-82
2022/02/28 12:51:37;;;;;;;3.20;3.03;;;41.30;20.70;;;;;;5069962;28;20487;-82
2022/02/28 12:54:09;;;;;;;2.73;2.63;;;41.30;20.70;;;;;;5063872;28;20863;-82